createdAt,value
2019-03-20T00:00:08.862Z,0.64
2019-03-20T00:02:44.826Z,0.53
2019-03-20T00:05:20.295Z,0.48
2019-03-20T00:07:54.143Z,0.42
2019-03-20T00:10:28.294Z,0.44
2019-03-20T00:13:01.641Z,0.44
2019-03-20T00:15:35.475Z,0.47
2019-03-20T00:18:09.674Z,0.53
2019-03-20T00:20:52.653Z,0.65
2019-03-20T00:23:38.939Z,0.66
2019-03-20T00:26:13.097Z,0.59
2019-03-20T00:28:47.507Z,0.26
2019-03-20T00:31:21.088Z,0.35
2019-03-20T00:33:54.537Z,0.31
2019-03-20T00:36:29.569Z,0.36
2019-03-20T00:39:08.406Z,0.42
2019-03-20T00:41:42.610Z,0.35
2019-03-20T00:44:16.474Z,0.36
2019-03-20T00:46:59.850Z,0.44
2019-03-20T00:49:33.374Z,0.33
2019-03-20T00:52:07.361Z,0.35
2019-03-20T00:54:41.468Z,0.38
2019-03-20T00:57:15.593Z,0.35
2019-03-20T00:59:58.689Z,0.45
2019-03-20T01:02:41.504Z,0.36
2019-03-20T01:05:24.827Z,0.31
2019-03-20T01:07:59.906Z,0.28
2019-03-20T01:10:33.858Z,0.30
2019-03-20T01:13:07.729Z,0.35
2019-03-20T01:15:42.238Z,0.44
2019-03-20T01:18:16.171Z,0.44
2019-03-20T01:20:50.404Z,0.38
2019-03-20T01:23:24.076Z,0.32
2019-03-20T01:26:07.779Z,0.34
2019-03-20T01:28:42.118Z,0.07
2019-03-20T01:31:15.407Z,0.34
2019-03-20T01:33:48.928Z,0.39
2019-03-20T01:36:23.048Z,0.39
2019-03-20T01:39:11.475Z,0.42
2019-03-20T01:41:44.816Z,0.48
2019-03-20T01:44:19.011Z,0.57
2019-03-20T01:47:07.682Z,0.76
2019-03-20T01:49:43.036Z,0.65
2019-03-20T01:52:16.967Z,0.65
2019-03-20T01:55:06.274Z,0.72
2019-03-20T01:57:43.708Z,0.85
2019-03-20T02:00:16.039Z,0.84
2019-03-20T02:02:59.355Z,1.02
2019-03-20T02:05:36.242Z,1.08
2019-03-20T02:08:09.614Z,1.13
2019-03-20T02:10:54.678Z,1.25
2019-03-20T02:13:28.789Z,1.33
2019-03-20T02:16:02.788Z,1.13
2019-03-20T02:18:46.673Z,1.35
2019-03-20T02:21:20.221Z,1.32
2019-03-20T02:23:54.394Z,1.29
2019-03-20T02:26:28.031Z,1.32
2019-03-20T02:29:02.298Z,1.24
2019-03-20T02:31:36.683Z,1.21
2019-03-20T02:34:10.243Z,1.14
2019-03-20T02:36:45.846Z,1.06
2019-03-20T02:39:35.050Z,1.10
2019-03-20T02:42:18.318Z,1.08
2019-03-20T02:44:52.813Z,1.06
2019-03-20T02:47:41.940Z,1.10
2019-03-20T02:50:15.341Z,0.94
2019-03-20T02:52:50.446Z,1.02
2019-03-20T02:55:36.162Z,1.17
2019-03-20T02:58:18.264Z,1.22
2019-03-20T03:00:52.047Z,1.26
2019-03-20T03:03:25.780Z,1.41
2019-03-20T03:06:07.152Z,1.50
2019-03-20T03:08:37.360Z,1.56
2019-03-20T03:11:10.914Z,1.72
2019-03-20T03:13:46.211Z,1.80
2019-03-20T03:16:20.437Z,1.89
2019-03-20T03:19:03.494Z,2.11
2019-03-20T03:21:38.482Z,2.21
2019-03-20T03:24:21.276Z,2.39
2019-03-20T03:27:04.325Z,2.44
2019-03-20T03:29:52.813Z,2.44
2019-03-20T03:32:36.164Z,2.41
2019-03-20T03:35:22.553Z,2.35
2019-03-20T03:37:57.877Z,2.25
2019-03-20T03:40:40.497Z,2.17
2019-03-20T03:43:14.296Z,2.02
2019-03-20T03:45:57.949Z,2.06
2019-03-20T03:48:32.345Z,1.91
2019-03-20T03:51:15.435Z,1.93
2019-03-20T03:53:50.143Z,1.78
2019-03-20T03:56:24.732Z,1.69
2019-03-20T03:58:58.798Z,1.65
2019-03-20T04:01:33.157Z,1.57
2019-03-20T04:04:16.036Z,1.56
2019-03-20T04:06:59.517Z,1.58
2019-03-20T04:09:33.663Z,1.56
2019-03-20T04:12:17.145Z,1.52
2019-03-20T04:14:51.747Z,1.37
2019-03-20T04:17:35.087Z,1.39
2019-03-20T04:20:09.967Z,1.36
2019-03-20T04:22:52.662Z,1.33
2019-03-20T04:25:25.800Z,1.23
2019-03-20T04:28:00.430Z,1.26
2019-03-20T04:30:34.206Z,1.27
2019-03-20T04:33:17.504Z,1.27
2019-03-20T04:35:51.714Z,1.21
2019-03-20T04:38:25.217Z,1.15
2019-03-20T04:41:03.944Z,1.11
2019-03-20T04:46:55.679Z,1.12
2019-03-20T04:49:38.712Z,1.21
2019-03-20T04:52:21.524Z,1.14
2019-03-20T04:55:04.123Z,1.24
2019-03-20T04:57:38.795Z,1.15
2019-03-20T05:00:14.483Z,1.12
2019-03-20T05:02:48.367Z,1.19
2019-03-20T05:05:31.632Z,1.17
2019-03-20T05:08:05.061Z,1.17
2019-03-20T05:10:51.413Z,1.29
2019-03-20T05:13:24.850Z,1.30
2019-03-20T05:15:58.778Z,1.41
2019-03-20T05:18:33.009Z,1.43
2019-03-20T05:21:15.287Z,1.48
2019-03-20T05:23:49.145Z,1.55
2019-03-20T05:26:23.809Z,1.52
2019-03-20T05:28:57.623Z,1.58
2019-03-20T05:31:31.978Z,1.71
2019-03-20T05:34:15.157Z,1.85
2019-03-20T05:37:10.373Z,1.91
2019-03-20T05:39:50.080Z,2.01
2019-03-20T05:42:33.719Z,2.12
2019-03-20T05:45:08.434Z,2.16
2019-03-20T05:47:59.373Z,2.29
2019-03-20T05:50:31.137Z,2.32
2019-03-20T05:53:15.587Z,2.44
2019-03-20T05:56:00.454Z,2.54
2019-03-20T05:58:34.336Z,2.55
2019-03-20T06:01:19.712Z,2.67
2019-03-20T06:04:03.424Z,2.68
2019-03-20T06:06:37.859Z,2.70
2019-03-20T06:09:20.994Z,2.78
2019-03-20T06:11:56.585Z,2.79
2019-03-20T06:14:31.258Z,2.68
2019-03-20T06:17:06.085Z,2.86
2019-03-20T06:19:49.860Z,2.96
2019-03-20T06:22:24.046Z,2.98
2019-03-20T06:24:58.059Z,2.97
2019-03-20T06:27:41.192Z,3.04
2019-03-20T06:30:15.661Z,3.04
2019-03-20T06:32:49.440Z,3.12
2019-03-20T06:35:33.278Z,3.23
2019-03-20T06:38:06.726Z,3.23
2019-03-20T06:40:40.503Z,3.25
2019-03-20T06:43:14.344Z,3.34
2019-03-20T06:45:48.091Z,3.42
2019-03-20T06:48:21.635Z,3.47
2019-03-20T06:50:55.662Z,3.56
2019-03-20T06:53:39.117Z,3.69
2019-03-20T06:56:13.172Z,3.68
2019-03-20T06:58:47.904Z,3.71
2019-03-20T07:01:34.357Z,3.80
2019-03-20T07:04:31.734Z,3.85
2019-03-20T07:07:27.538Z,3.92
2019-03-20T07:10:11.212Z,3.93
2019-03-20T07:12:45.696Z,4.02
2019-03-20T07:15:20.098Z,4.10
2019-03-20T07:17:54.237Z,4.19
2019-03-20T07:20:37.484Z,4.38
2019-03-20T07:23:10.690Z,4.43
2019-03-20T07:25:44.184Z,4.58
2019-03-20T07:28:27.147Z,4.77
2019-03-20T07:31:15.194Z,4.91
2019-03-20T07:33:54.945Z,5.04
2019-03-20T07:36:28.203Z,5.16
2019-03-20T07:39:01.776Z,5.31
2019-03-20T07:41:46.163Z,5.45
2019-03-20T07:44:18.278Z,5.55
2019-03-20T07:46:52.163Z,5.64
2019-03-20T07:49:25.915Z,5.77
2019-03-20T07:52:00.141Z,5.96
2019-03-20T07:54:43.162Z,6.16
2019-03-20T07:57:16.699Z,6.26
2019-03-20T07:59:50.173Z,6.45
2019-03-20T08:02:23.596Z,6.59
2019-03-20T08:04:57.474Z,6.68
2019-03-20T08:07:31.468Z,6.79
2019-03-20T08:10:14.815Z,6.94
2019-03-20T08:12:57.612Z,6.99
2019-03-20T08:15:40.423Z,6.98
2019-03-20T08:18:23.701Z,7.01
2019-03-20T08:20:58.331Z,7.02
2019-03-20T08:23:41.544Z,7.14
2019-03-20T08:26:16.196Z,7.15
2019-03-20T08:29:02.455Z,7.34
2019-03-20T08:31:45.835Z,7.54
2019-03-20T08:34:19.605Z,7.65
2019-03-20T08:36:53.439Z,7.81
2019-03-20T08:39:27.840Z,7.85
2019-03-20T08:42:01.923Z,7.90
2019-03-20T08:44:35.689Z,7.77
2019-03-20T08:47:09.579Z,7.68
2019-03-20T08:49:43.824Z,7.67
2019-03-20T08:52:17.362Z,7.69
2019-03-20T08:54:59.833Z,7.74
2019-03-20T08:57:43.144Z,7.70
2019-03-20T09:00:18.604Z,7.67
2019-03-20T09:02:53.364Z,7.66
2019-03-20T09:05:35.996Z,7.77
2019-03-20T09:08:29.248Z,7.83
2019-03-20T09:11:00.050Z,7.84
2019-03-20T09:13:42.380Z,8.01
2019-03-20T09:16:15.997Z,8.01
2019-03-20T09:18:50.671Z,8.10
2019-03-20T09:21:24.681Z,8.26
2019-03-20T09:23:58.442Z,8.37
2019-03-20T09:26:32.331Z,8.41
2019-03-20T09:29:05.862Z,8.54
2019-03-20T09:31:39.020Z,8.63
2019-03-20T09:34:12.974Z,8.67
2019-03-20T09:36:46.575Z,8.73
2019-03-20T09:39:20.654Z,8.84
2019-03-20T09:42:03.137Z,8.97
2019-03-20T09:44:37.133Z,9.09
2019-03-20T09:47:19.184Z,9.24
2019-03-20T09:49:52.646Z,9.30
2019-03-20T09:52:26.482Z,9.29
2019-03-20T09:55:00.347Z,9.20
2019-03-20T09:57:34.258Z,9.24
2019-03-20T10:00:24.848Z,9.39
2019-03-20T10:03:09.892Z,9.58
2019-03-20T10:05:43.021Z,9.63
2019-03-20T10:08:26.381Z,9.58
2019-03-20T10:10:59.502Z,9.63
2019-03-20T10:13:35.067Z,9.67
2019-03-20T10:16:08.484Z,9.68
2019-03-20T10:18:41.733Z,9.60
2019-03-20T10:21:24.163Z,9.53
2019-03-20T10:23:57.753Z,9.39
2019-03-20T10:26:31.196Z,9.34
2019-03-20T10:29:05.944Z,9.36
2019-03-20T10:31:39.836Z,9.32
2019-03-20T10:34:13.803Z,9.29
2019-03-20T10:36:47.175Z,9.25
2019-03-20T10:39:20.981Z,9.31
2019-03-20T10:41:54.415Z,9.30
2019-03-20T10:44:32.259Z,9.24
2019-03-20T10:47:13.206Z,9.26
2019-03-20T10:49:45.632Z,9.32
2019-03-20T10:52:28.091Z,9.40
2019-03-20T10:55:10.760Z,9.47
2019-03-20T10:57:44.361Z,9.52
2019-03-20T11:00:19.458Z,9.56
2019-03-20T11:02:52.975Z,9.57
2019-03-20T11:05:26.892Z,9.56
2019-03-20T11:08:00.633Z,9.60
2019-03-20T11:10:44.668Z,9.65
2019-03-20T11:13:18.225Z,9.61
2019-03-20T11:15:51.715Z,9.61
2019-03-20T11:18:25.238Z,9.62
2019-03-20T11:20:58.859Z,9.64
2019-03-20T11:23:32.292Z,9.63
2019-03-20T11:26:06.508Z,9.60
2019-03-20T11:28:39.930Z,9.61
2019-03-20T11:31:13.565Z,9.57
2019-03-20T11:33:47.659Z,9.58
2019-03-20T11:36:31.245Z,9.70
2019-03-20T11:39:07.054Z,9.77
2019-03-20T11:41:49.311Z,9.88
2019-03-20T11:44:23.064Z,9.86
2019-03-20T11:46:57.227Z,9.83
2019-03-20T11:49:30.844Z,9.90
2019-03-20T11:52:06.303Z,9.99
2019-03-20T11:54:39.849Z,9.97
2019-03-20T11:57:13.379Z,10.01
2019-03-20T11:59:46.840Z,9.89
2019-03-20T12:02:28.056Z,10.03
2019-03-20T12:05:05.671Z,10.05
2019-03-20T12:07:39.161Z,9.97
2019-03-20T12:10:15.271Z,9.88
2019-03-20T12:12:58.161Z,9.92
2019-03-20T12:15:31.920Z,9.83
2019-03-20T12:18:05.829Z,9.79
2019-03-20T12:20:39.270Z,9.79
2019-03-20T12:23:13.510Z,9.35
2019-03-20T12:25:47.191Z,9.77
2019-03-20T12:28:21.280Z,9.81
2019-03-20T12:31:03.804Z,9.82
2019-03-20T12:33:46.014Z,9.80
2019-03-20T12:36:19.726Z,9.75
2019-03-20T12:38:54.224Z,9.78
2019-03-20T12:41:28.087Z,9.81
2019-03-20T12:44:02.267Z,9.72
2019-03-20T12:46:41.338Z,9.62
2019-03-20T12:49:11.325Z,9.58
2019-03-20T12:51:54.196Z,9.60
2019-03-20T12:54:36.871Z,9.60
2019-03-20T12:57:10.646Z,9.47
2019-03-20T12:59:44.219Z,9.35
2019-03-20T13:02:18.390Z,9.23
2019-03-20T13:04:52.210Z,9.18
2019-03-20T13:07:25.752Z,9.06
2019-03-20T13:10:03.253Z,9.07
2019-03-20T13:12:33.663Z,9.06
2019-03-20T13:15:08.498Z,9.04
2019-03-20T13:17:41.652Z,9.01
2019-03-20T13:20:15.135Z,9.02
2019-03-20T13:23:00.311Z,9.04
2019-03-20T13:25:33.860Z,9.03
2019-03-20T13:28:07.357Z,9.07
2019-03-20T13:30:43.699Z,9.05
2019-03-20T13:33:25.280Z,9.02
2019-03-20T13:35:53.146Z,8.93
2019-03-20T13:38:26.257Z,8.91
2019-03-20T13:41:00.786Z,8.96
2019-03-20T13:43:47.120Z,9.00
2019-03-20T13:46:21.828Z,8.98
2019-03-20T13:48:54.965Z,8.90
2019-03-20T13:51:29.131Z,8.92
2019-03-20T13:54:02.280Z,8.95
2019-03-20T13:56:36.599Z,8.94
2019-03-20T13:59:10.450Z,9.00
2019-03-20T14:01:44.636Z,9.00
2019-03-20T14:04:18.750Z,9.01
2019-03-20T14:06:52.525Z,9.04
2019-03-20T14:09:26.022Z,9.06
2019-03-20T14:11:59.853Z,9.05
2019-03-20T14:14:48.673Z,9.17
2019-03-20T14:17:23.450Z,9.16
2019-03-20T14:19:57.157Z,9.08
2019-03-20T14:22:30.882Z,9.07
2019-03-20T14:25:05.116Z,8.84
2019-03-20T14:27:48.419Z,9.13
2019-03-20T14:30:23.716Z,9.08
2019-03-20T14:32:56.980Z,9.12
2019-03-20T14:35:31.239Z,8.97
2019-03-20T14:38:05.073Z,9.13
2019-03-20T14:40:38.980Z,9.12
2019-03-20T14:43:22.190Z,9.20
2019-03-20T14:45:55.660Z,9.15
2019-03-20T14:48:39.009Z,9.24
2019-03-20T14:51:12.920Z,9.12
2019-03-20T14:53:47.357Z,9.08
2019-03-20T14:56:30.543Z,9.15
2019-03-20T14:59:04.060Z,9.10
2019-03-20T15:01:37.954Z,9.16
2019-03-20T15:04:11.607Z,9.13
2019-03-20T15:06:45.559Z,9.18
2019-03-20T15:09:19.903Z,9.20
2019-03-20T15:11:54.021Z,9.22
2019-03-20T15:14:27.879Z,9.24
2019-03-20T15:17:02.038Z,9.25
2019-03-20T15:19:44.747Z,9.33
2019-03-20T15:22:33.634Z,9.35
2019-03-20T15:25:16.884Z,9.36
2019-03-20T15:27:50.649Z,9.32
2019-03-20T15:30:26.276Z,9.30
2019-03-20T15:33:00.156Z,9.32
2019-03-20T15:35:34.032Z,9.34
2019-03-20T15:38:16.533Z,9.41
2019-03-20T15:40:56.151Z,9.38
2019-03-20T15:43:25.736Z,9.39
2019-03-20T15:46:09.018Z,9.43
2019-03-20T15:48:42.591Z,9.40
2019-03-20T15:51:16.585Z,8.94
2019-03-20T15:54:00.206Z,9.46
2019-03-20T15:56:44.898Z,9.48
2019-03-20T15:59:19.815Z,9.44
2019-03-20T16:01:53.785Z,9.42
2019-03-20T16:04:39.007Z,9.50
2019-03-20T16:07:13.129Z,9.43
2019-03-20T16:09:57.253Z,9.49
2019-03-20T16:12:46.346Z,9.48
2019-03-20T16:15:20.937Z,9.44
2019-03-20T16:18:06.743Z,9.52
2019-03-20T16:20:40.770Z,9.50
2019-03-20T16:23:14.544Z,9.52
2019-03-20T16:25:48.109Z,9.55
2019-03-20T16:28:22.454Z,9.55
2019-03-20T16:30:56.889Z,9.52
2019-03-20T16:33:30.396Z,9.53
2019-03-20T16:36:05.409Z,9.32
2019-03-20T16:38:49.296Z,9.58
2019-03-20T16:41:36.836Z,9.57
2019-03-20T16:44:19.608Z,9.58
2019-03-20T16:46:53.467Z,9.54
2019-03-20T16:49:26.714Z,9.54
2019-03-20T16:52:09.970Z,9.61
2019-03-20T16:54:44.646Z,9.58
2019-03-20T16:57:28.312Z,9.64
2019-03-20T17:00:02.260Z,9.58
2019-03-20T17:02:36.565Z,9.60
2019-03-20T17:05:19.823Z,9.64
2019-03-20T17:07:53.332Z,9.61
2019-03-20T17:10:29.043Z,9.41
2019-03-20T17:13:02.909Z,9.61
2019-03-20T17:15:37.071Z,9.62
2019-03-20T17:18:19.392Z,9.67
2019-03-20T17:20:53.604Z,9.62
2019-03-20T17:23:26.979Z,9.63
2019-03-20T17:26:00.637Z,9.63
2019-03-20T17:28:33.709Z,9.61
2019-03-20T17:31:07.852Z,9.64
2019-03-20T17:33:50.706Z,9.68
2019-03-20T17:36:33.664Z,9.68
2019-03-20T17:39:16.475Z,9.67
2019-03-20T17:41:59.501Z,9.67
2019-03-20T17:44:48.011Z,9.67
2019-03-20T17:47:21.223Z,9.65
2019-03-20T17:49:54.947Z,9.65
2019-03-20T17:52:28.179Z,9.62
2019-03-20T17:55:01.971Z,9.65
2019-03-20T17:57:35.123Z,9.63
2019-03-20T18:00:24.331Z,9.70
2019-03-20T18:03:15.467Z,9.68
2019-03-20T18:05:50.011Z,9.65
2019-03-20T18:08:33.275Z,9.71
2019-03-20T18:11:07.295Z,9.66
2019-03-20T18:13:41.117Z,9.65
2019-03-20T18:16:14.930Z,9.64
2019-03-20T18:18:48.897Z,9.65
2019-03-20T18:21:32.584Z,9.69
2019-03-20T18:24:06.876Z,9.62
2019-03-20T18:26:40.329Z,9.64
2019-03-20T18:29:14.267Z,9.63
2019-03-20T18:31:57.637Z,9.66
2019-03-20T18:34:40.555Z,9.65
2019-03-20T18:37:29.501Z,9.64
2019-03-20T18:40:03.351Z,9.63
2019-03-20T18:42:37.592Z,9.65
2019-03-20T18:45:11.624Z,9.65
2019-03-20T18:47:57.023Z,9.70
2019-03-20T18:50:30.490Z,9.65
2019-03-20T18:53:04.532Z,9.64
2019-03-20T18:55:39.003Z,9.64
2019-03-20T18:58:27.762Z,9.71
2019-03-20T19:01:02.025Z,9.63
2019-03-20T19:03:36.642Z,9.59
2019-03-20T19:06:14.456Z,9.59
2019-03-20T19:09:02.784Z,9.65
2019-03-20T19:11:37.792Z,9.58
2019-03-20T19:14:11.601Z,9.61
2019-03-20T19:16:45.130Z,9.64
2019-03-20T19:19:18.312Z,9.60
2019-03-20T19:21:52.407Z,9.58
2019-03-20T19:24:29.068Z,9.57
2019-03-20T19:27:02.629Z,9.59
2019-03-20T19:29:36.273Z,9.62
2019-03-20T19:32:10.008Z,9.58
2019-03-20T19:34:54.455Z,9.52
2019-03-20T19:37:28.074Z,9.42
2019-03-20T19:40:02.068Z,9.41
2019-03-20T19:42:45.266Z,9.43
2019-03-20T19:45:27.281Z,9.43
2019-03-20T19:48:10.279Z,9.40
2019-03-20T19:50:57.081Z,9.37
2019-03-20T19:53:31.209Z,9.33
2019-03-20T19:56:14.276Z,9.36
2019-03-20T19:58:56.985Z,9.38
2019-03-20T20:01:42.676Z,9.35
2019-03-20T20:04:16.400Z,9.26
2019-03-20T20:06:58.998Z,9.31
2019-03-20T20:09:32.133Z,9.27
2019-03-20T20:12:05.414Z,9.29
2019-03-20T20:14:39.000Z,9.22
2019-03-20T20:17:12.889Z,9.26
2019-03-20T20:19:45.982Z,9.19
2019-03-20T20:22:27.918Z,9.22
2019-03-20T20:25:02.052Z,9.15
2019-03-20T20:27:36.260Z,9.16
2019-03-20T20:30:12.083Z,9.15
2019-03-20T20:32:46.250Z,9.12
2019-03-20T20:35:28.749Z,9.12
2019-03-20T20:38:02.579Z,9.04
2019-03-20T20:40:44.924Z,9.07
2019-03-20T20:43:18.349Z,9.00
2019-03-20T20:45:51.808Z,8.98
2019-03-20T20:48:24.932Z,9.01
2019-03-20T20:51:08.918Z,9.06
2019-03-20T20:53:42.079Z,9.00
2019-03-20T20:56:15.778Z,9.00
2019-03-20T20:58:51.529Z,8.99
2019-03-20T21:01:34.161Z,9.05
2019-03-20T21:04:08.629Z,9.00
2019-03-20T21:06:42.507Z,9.00
2019-03-20T21:09:16.571Z,9.00
2019-03-20T21:11:50.085Z,9.00
2019-03-20T21:14:22.924Z,9.00
2019-03-20T21:16:56.979Z,9.03
2019-03-20T21:19:38.381Z,9.05
2019-03-20T21:22:49.720Z,9.05
2019-03-20T21:25:24.048Z,9.06
2019-03-20T21:28:50.864Z,9.04
2019-03-20T21:31:43.599Z,9.06
2019-03-20T21:35:11.866Z,9.06
2019-03-20T21:38:14.718Z,9.08
2019-03-20T21:41:00.942Z,9.02
2019-03-20T21:44:23.602Z,9.04
2019-03-20T21:47:38.264Z,9.01
2019-03-20T21:51:03.707Z,9.10
2019-03-20T21:54:10.764Z,9.05
2019-03-20T21:56:57.041Z,9.02
2019-03-20T21:59:53.248Z,9.01
2019-03-20T22:02:45.831Z,9.02
2019-03-20T22:05:54.650Z,9.03
2019-03-20T22:08:29.521Z,9.05
2019-03-20T22:11:35.522Z,9.04
2019-03-20T22:14:19.149Z,9.07
2019-03-20T22:17:50.616Z,9.00
2019-03-20T22:20:36.364Z,8.98
2019-03-20T22:24:09.335Z,9.02
2019-03-20T22:27:24.040Z,8.97
2019-03-20T22:29:58.692Z,8.96
2019-03-20T22:33:28.135Z,9.05
2019-03-20T22:36:19.493Z,9.02
2019-03-20T22:39:41.733Z,9.03
2019-03-20T22:42:50.901Z,9.08
2019-03-20T22:46:15.906Z,9.04
2019-03-20T22:49:50.160Z,9.12
2019-03-20T22:52:59.173Z,9.07
2019-03-20T22:56:10.382Z,9.07
2019-03-20T22:58:42.633Z,9.10
2019-03-20T23:01:26.501Z,9.09
2019-03-20T23:04:04.645Z,9.06
2019-03-20T23:06:38.440Z,9.03
2019-03-20T23:09:12.644Z,9.02
2019-03-20T23:11:44.842Z,9.03
2019-03-20T23:14:18.551Z,9.02
2019-03-20T23:16:52.587Z,9.05
2019-03-20T23:19:26.330Z,9.04
2019-03-20T23:22:00.709Z,9.06
2019-03-20T23:24:36.293Z,9.10
2019-03-20T23:27:14.184Z,9.13
2019-03-20T23:29:48.870Z,9.09
2019-03-20T23:32:22.584Z,9.09
2019-03-20T23:34:57.908Z,9.08
2019-03-20T23:37:41.205Z,9.15
2019-03-20T23:40:15.615Z,9.10
2019-03-20T23:43:01.539Z,9.18
2019-03-20T23:45:50.663Z,9.19
2019-03-20T23:48:35.492Z,9.16
2019-03-20T23:51:12.293Z,9.21
2019-03-20T23:53:48.715Z,9.17
2019-03-20T23:56:33.304Z,9.17
2019-03-20T23:59:16.120Z,9.15
